Time;durP1;ratioP1;P1;durP2;ratioP2;P2;SDS_P1;SDS_P2;PMS_P1;PMS_P2;Temp;Humidity;BMP_temperature;BMP_pressure;BME280_temperature;BME280_humidity;BME280_pressure;Samples;Min_cycle;Max_cycle;Signal;HPM_P1;HPM_P2
2022/09/30 00:01:35;;;;;;;;;;;;;;;8.46;100.00;98118.41;104828;1273;73718;-69
2022/09/30 00:04:02;;;;;;;;;;;;;;;8.50;100.00;98118.65;104758;1272;61483;-70
2022/09/30 00:06:30;;;;;;;;;;;;;;;8.52;100.00;98113.52;104609;1273;61137;-69
2022/09/30 00:08:56;;;;;;;;;;;;;;;8.57;100.00;98109.68;104767;1272;74707;-69
2022/09/30 00:11:31;;;;;;;;;;;;;;;8.61;100.00;98110.06;104605;1273;70029;-68
2022/09/30 00:13:57;;;;;;;;;;;;;;;8.65;100.00;98109.45;104589;1272;71643;-69
2022/09/30 00:16:25;;;;;;;;;;;;;;;8.67;100.00;98108.56;104600;1273;61328;-69
2022/09/30 00:18:54;;;;;;;;;;;;;;;8.70;100.00;98113.11;104604;1273;61331;-69
2022/09/30 00:21:22;;;;;;;;;;;;;;;8.73;100.00;98112.56;104932;1273;75087;-69
2022/09/30 00:23:48;;;;;;;;;;;;;;;8.75;100.00;98112.72;104635;1273;70702;-70
2022/09/30 00:26:17;;;;;;;;;;;;;;;8.77;100.00;98106.92;104620;1273;61277;-69
2022/09/30 00:28:44;;;;;;;;;;;;;;;8.79;100.00;98105.88;104771;1273;61297;-70
2022/09/30 00:31:12;;;;;;;;;;;;;;;8.82;100.00;98109.95;104624;1273;61347;-69
2022/09/30 00:33:39;;;;;;;;;;;;;;;8.84;100.00;98107.66;104612;1272;75325;-69
2022/09/30 00:36:06;;;;;;;;;;;;;;;8.86;100.00;98105.95;104659;1273;70223;-69
2022/09/30 00:38:32;;;;;;;;;;;;;;;8.88;100.00;98104.57;104677;1273;73236;-69
2022/09/30 00:40:59;;;;;;;;;;;;;;;8.89;100.00;98100.00;104617;1272;61408;-69
2022/09/30 00:43:40;;;;;;;;;;;;;;;8.91;100.00;98099.02;104616;1273;61542;-69
2022/09/30 00:46:15;;;;;;;;;;;;;;;8.92;100.00;98112.73;104660;1273;74604;-69
2022/09/30 00:48:42;;;;;;;;;;;;;;;8.94;100.00;98119.70;104624;1272;69943;-69
2022/09/30 00:51:09;;;;;;;;;;;;;;;8.95;100.00;98125.59;104612;1273;73781;-70
2022/09/30 00:53:48;;;;;;;;;;;;;;;8.97;100.00;98126.34;104596;1273;61442;-69
2022/09/30 00:56:23;;;;;;;;;;;;;;;8.98;100.00;98125.98;104644;1273;61299;-69
2022/09/30 00:58:50;;;;;;;;;;;;;;;8.99;100.00;98122.83;104654;1273;75787;-70
2022/09/30 01:01:17;;;;;;;;;;;;;;;9.01;100.00;98120.79;104632;1273;61362;-69
2022/09/30 01:03:49;;;;;;;;;;;;;;;9.02;100.00;98116.80;104780;1272;73107;-69
2022/09/30 01:06:16;;;;;;;;;;;;;;;9.03;100.00;98121.84;104688;1272;61181;-70
2022/09/30 01:08:44;;;;;;;;;;;;;;;9.04;100.00;98116.15;104739;1272;61248;-69
2022/09/30 01:11:11;;;;;;;;;;;;;;;9.05;100.00;98115.67;104626;1272;75189;-69
2022/09/30 01:13:38;;;;;;;;;;;;;;;9.06;100.00;98115.77;104612;1273;70281;-69
2022/09/30 01:16:14;;;;;;;;;;;;;;;9.07;100.00;98110.79;104670;1273;72913;-69
2022/09/30 01:18:41;;;;;;;;;;;;;;;9.08;100.00;98114.08;104601;1273;61275;-69
2022/09/30 01:21:26;;;;;;;;;;;;;;;9.08;100.00;98124.46;104641;1272;61863;-69
2022/09/30 01:24:06;;;;;;;;;;;;;;;9.09;100.00;98124.05;104649;1273;75904;-68
2022/09/30 01:26:49;;;;;;;;;;;;;;;9.10;100.00;98124.05;104632;1273;69807;-69
2022/09/30 01:29:33;;;;;;;;;;;;;;;9.10;100.00;98124.16;104619;1273;74309;-69
2022/09/30 01:32:13;;;;;;;;;;;;;;;9.11;100.00;98123.91;104608;1273;61331;-69
2022/09/30 01:34:40;;;;;;;;;;;;;;;9.12;100.00;98125.92;104781;1273;61326;-69
2022/09/30 01:37:16;;;;;;;;;;;;;;;9.13;100.00;98128.88;104607;1273;75917;-69
2022/09/30 01:39:55;;;;;;;;;;;;;;;9.14;100.00;98126.91;104694;1272;68677;-69
2022/09/30 01:42:21;;;;;;;;;;;;;;;9.14;100.00;98125.99;104617;1273;73341;-69
2022/09/30 01:45:12;;;;;;;;;;;;;;;9.15;100.00;98129.98;104592;1273;62842;-69
2022/09/30 01:47:45;;;;;;;;;;;;;;;9.16;100.00;98130.27;104322;1279;61198;-69
2022/09/30 01:50:20;;;;;;;;;;;;;;;9.17;100.00;98130.89;103958;1279;75500;-69
2022/09/30 01:52:54;;;;;;;;;;;;;;;9.18;100.00;98125.48;104198;1279;68768;-68
2022/09/30 01:55:28;;;;;;;;;;;;;;;9.19;100.00;98125.23;104203;1279;74160;-68
2022/09/30 01:58:18;;;;;;;;;;;;;;;9.21;100.00;98131.48;104264;1279;61370;-70
2022/09/30 02:00:48;;;;;;;;;;;;;;;9.22;100.00;98136.02;104233;1279;61837;-69
2022/09/30 02:03:21;;;;;;;;;;;;;;;9.23;100.00;98141.61;104268;1279;75347;-69
2022/09/30 02:05:56;;;;;;;;;;;;;;;9.25;100.00;98139.90;104336;1279;69271;-69
2022/09/30 02:08:30;;;;;;;;;;;;;;;9.27;100.00;98133.91;104464;1279;73458;-69
2022/09/30 02:10:59;;;;;;;;;;;;;;;9.28;100.00;98130.48;104322;1279;61465;-69
2022/09/30 02:13:36;;;;;;;;;;;;;;;9.29;100.00;98135.18;104168;1279;61370;-69
2022/09/30 02:16:11;;;;;;;;;;;;;;;9.31;100.00;98139.30;104152;1279;75551;-70
2022/09/30 02:18:41;;;;;;;;;;;;;;;9.32;100.00;98142.41;104205;1279;70190;-69
2022/09/30 02:21:10;;;;;;;;;;;;;;;9.33;100.00;98141.58;104173;1279;74486;-70
2022/09/30 02:23:39;;;;;;;;;;;;;;;9.34;100.00;98142.70;104505;1279;61300;-69
2022/09/30 02:26:09;;;;;;;;;;;;;;;9.37;100.00;98141.46;104772;1273;61462;-70
2022/09/30 02:28:38;;;;;;;;;;;;;;;9.39;100.00;98143.45;104952;1273;75516;-69
2022/09/30 02:31:07;;;;;;;;;;;;;;;9.40;100.00;98141.18;104616;1272;69333;-68
2022/09/30 02:33:50;;;;;;;;;;;;;;;9.42;100.00;98138.77;104683;1273;73625;-70
2022/09/30 02:36:30;;;;;;;;;;;;;;;9.43;100.00;98137.64;104744;1273;61300;-69
2022/09/30 02:39:00;;;;;;;;;;;;;;;9.45;100.00;98140.66;104614;1273;61884;-70
2022/09/30 02:41:29;;;;;;;;;;;;;;;9.46;100.00;98139.15;104621;1273;75048;-69
2022/09/30 02:43:56;;;;;;;;;;;;;;;9.48;100.00;98135.86;104622;1272;70058;-69
2022/09/30 02:46:35;;;;;;;;;;;;;;;9.49;100.00;98137.70;104616;1273;73421;-69
2022/09/30 02:49:07;;;;;;;;;;;;;;;9.50;100.00;98135.48;104716;1272;61333;-69
2022/09/30 02:51:33;;;;;;;;;;;;;;;9.51;100.00;98134.20;104606;1272;61860;-69
2022/09/30 02:53:59;;;;;;;;;;;;;;;9.52;100.00;98137.33;104626;1273;61214;-71
2022/09/30 02:56:37;;;;;;;;;;;;;;;9.52;100.00;98137.98;104779;1272;61290;-69
2022/09/30 02:59:04;;;;;;;;;;;;;;;9.53;100.00;98141.84;104804;1273;73211;-70
2022/09/30 03:01:30;;;;;;;;;;;;;;;9.54;100.00;98144.75;104634;1273;61361;-69
2022/09/30 03:04:03;;;;;;;;;;;;;;;9.55;100.00;98144.34;104638;1273;61303;-69
2022/09/30 03:06:30;;;;;;;;;;;;;;;9.56;100.00;98149.58;104618;1273;75527;-70
2022/09/30 03:08:56;;;;;;;;;;;;;;;9.56;100.00;98150.79;104929;1273;69638;-70
2022/09/30 03:11:25;;;;;;;;;;;;;;;9.57;100.00;98151.94;104642;1273;73371;-70
2022/09/30 03:14:00;;;;;;;;;;;;;;;9.59;100.00;98149.39;104781;1272;61385;-69
2022/09/30 03:16:29;;;;;;;;;;;;;;;9.59;100.00;98152.88;104614;1272;61359;-68
2022/09/30 03:19:07;;;;;;;;;;;;;;;9.60;100.00;98152.29;104598;1273;75317;-68
2022/09/30 03:21:36;;;;;;;;;;;;;;;9.61;100.00;98153.79;104619;1273;69275;-68
2022/09/30 03:24:09;;;;;;;;;;;;;;;9.62;100.00;98155.71;104660;1272;72825;-69
2022/09/30 03:26:39;;;;;;;;;;;;;;;9.63;100.00;98156.30;104627;1273;61313;-68
2022/09/30 03:29:18;;;;;;;;;;;;;;;9.63;100.00;98156.63;104519;1273;62168;-68
2022/09/30 03:31:44;;;;;;;;;;;;;;;9.64;100.00;98155.17;104612;1273;76357;-69
2022/09/30 03:34:20;;;;;;;;;;;;;;;9.64;100.00;98154.13;104616;1273;61365;-69
2022/09/30 03:37:01;;;;;;;;;;;;;;;9.63;100.00;98156.28;104604;1272;74444;-69
2022/09/30 03:39:38;;;;;;;;;;;;;;;9.63;100.00;98160.05;104579;1272;61286;-69
2022/09/30 03:42:16;;;;;;;;;;;;;;;9.62;100.00;98163.80;104614;1273;61579;-68
2022/09/30 03:44:52;;;;;;;;;;;;;;;9.62;100.00;98166.27;104644;1272;75071;-71
2022/09/30 03:47:20;;;;;;;;;;;;;;;9.63;100.00;98165.94;104608;1273;68926;-68
2022/09/30 03:49:59;;;;;;;;;;;;;;;9.62;100.00;98165.95;104687;1272;74499;-71
2022/09/30 03:52:26;;;;;;;;;;;;;;;9.62;100.00;98168.26;104916;1272;61414;-69
2022/09/30 03:54:57;;;;;;;;;;;;;;;9.62;100.00;98170.58;104787;1272;61683;-68
2022/09/30 03:57:28;;;;;;;;;;;;;;;9.62;100.00;98175.31;104962;1272;75444;-68
2022/09/30 03:59:55;;;;;;;;;;;;;;;9.63;100.00;98176.14;104821;1272;70637;-68
2022/09/30 04:02:22;;;;;;;;;;;;;;;9.64;100.00;98179.10;104731;1272;73396;-68
2022/09/30 04:04:48;;;;;;;;;;;;;;;9.64;100.00;98180.51;104714;1272;61312;-68
2022/09/30 04:07:15;;;;;;;;;;;;;;;9.64;100.00;98182.84;104631;1272;61275;-68
2022/09/30 04:09:42;;;;;;;;;;;;;;;9.65;100.00;98184.71;104680;1273;76248;-69
2022/09/30 04:12:08;;;;;;;;;;;;;;;9.65;100.00;98185.74;104839;1273;69215;-69
2022/09/30 04:14:35;;;;;;;;;;;;;;;9.66;100.00;98183.21;104615;1273;72486;-69
2022/09/30 04:17:03;;;;;;;;;;;;;;;9.67;100.00;98186.19;104620;1273;61392;-70
2022/09/30 04:19:30;;;;;;;;;;;;;;;9.67;100.00;98185.09;104629;1273;63220;-69
2022/09/30 04:21:57;;;;;;;;;;;;;;;9.68;100.00;98188.59;104637;1273;74392;-70
2022/09/30 04:24:24;;;;;;;;;;;;;;;9.69;100.00;98188.15;104788;1272;69471;-70
2022/09/30 04:26:50;;;;;;;;;;;;;;;9.70;100.00;98188.64;104680;1272;73884;-69
2022/09/30 04:29:17;;;;;;;;;;;;;;;9.70;100.00;98187.20;104959;1273;61421;-70
2022/09/30 04:31:43;;;;;;;;;;;;;;;9.70;100.00;98186.66;104984;1272;61290;-69
2022/09/30 04:34:10;;;;;;;;;;;;;;;9.71;100.00;98187.48;104849;1272;61377;-69
2022/09/30 04:36:37;;;;;;;;;;;;;;;9.71;100.00;98186.04;104735;1273;70123;-69
2022/09/30 04:39:03;;;;;;;;;;;;;;;9.71;100.00;98185.34;104954;1272;73614;-69
2022/09/30 04:41:31;;;;;;;;;;;;;;;9.72;100.00;98187.79;104594;1273;61281;-69
2022/09/30 04:43:57;;;;;;;;;;;;;;;9.72;100.00;98186.17;104779;1272;61367;-69
2022/09/30 04:46:25;;;;;;;;;;;;;;;9.72;100.00;98185.30;104749;1273;74838;-70
2022/09/30 04:48:51;;;;;;;;;;;;;;;9.71;100.00;98183.42;104677;1272;69876;-69
2022/09/30 04:51:19;;;;;;;;;;;;;;;9.70;100.00;98185.79;104647;1273;61332;-70
2022/09/30 04:53:47;;;;;;;;;;;;;;;9.70;100.00;98189.99;104581;1273;61408;-69
2022/09/30 04:56:15;;;;;;;;;;;;;;;9.70;100.00;98186.44;104779;1273;61664;-69
2022/09/30 04:58:42;;;;;;;;;;;;;;;9.71;100.00;98192.97;104751;1273;76073;-69
2022/09/30 05:01:13;;;;;;;;;;;;;;;9.71;100.00;98192.23;104624;1273;70798;-69
2022/09/30 05:03:40;;;;;;;;;;;;;;;9.71;100.00;98194.03;104674;1273;73389;-69
2022/09/30 05:06:07;;;;;;;;;;;;;;;9.71;100.00;98194.36;104641;1272;61273;-71
2022/09/30 05:08:34;;;;;;;;;;;;;;;9.73;100.00;98194.99;104627;1272;62111;-69
2022/09/30 05:11:07;;;;;;;;;;;;;;;9.73;100.00;98199.16;104629;1272;75276;-69
2022/09/30 05:13:35;;;;;;;;;;;;;;;9.74;100.00;98201.25;104603;1273;70100;-72
2022/09/30 05:16:01;;;;;;;;;;;;;;;9.75;100.00;98200.86;104925;1272;74339;-69
2022/09/30 05:18:28;;;;;;;;;;;;;;;9.76;100.00;98197.17;104875;1272;61318;-69
2022/09/30 05:20:58;;;;;;;;;;;;;;;9.78;100.00;98202.52;104862;1273;61608;-69
2022/09/30 05:23:26;;;;;;;;;;;;;;;9.81;100.00;98202.70;104718;1273;73591;-69
2022/09/30 05:25:53;;;;;;;;;;;;;;;9.82;100.00;98199.17;104689;1273;69444;-68
2022/09/30 05:28:20;;;;;;;;;;;;;;;9.86;100.00;98202.59;104630;1273;61376;-68
2022/09/30 05:30:46;;;;;;;;;;;;;;;9.91;100.00;98205.82;104596;1273;61303;-69
2022/09/30 05:33:13;;;;;;;;;;;;;;;9.94;100.00;98208.61;104634;1272;61182;-69
2022/09/30 05:35:40;;;;;;;;;;;;;;;9.97;100.00;98214.20;104613;1273;61367;-68
2022/09/30 05:38:08;;;;;;;;;;;;;;;10.00;100.00;98218.92;104617;1272;69471;-70
2022/09/30 05:40:40;;;;;;;;;;;;;;;10.03;100.00;98219.80;104740;1272;73392;-70
2022/09/30 05:43:07;;;;;;;;;;;;;;;10.05;100.00;98216.40;104585;1272;61414;-69
2022/09/30 05:45:33;;;;;;;;;;;;;;;10.08;100.00;98219.20;104639;1272;61388;-70
2022/09/30 05:48:01;;;;;;;;;;;;;;;10.10;100.00;98220.49;104650;1272;74595;-69
2022/09/30 05:50:27;;;;;;;;;;;;;;;10.11;100.00;98223.93;104636;1272;70485;-68
2022/09/30 05:52:54;;;;;;;;;;;;;;;10.12;100.00;98222.96;104989;1273;73968;-69
2022/09/30 05:55:21;;;;;;;;;;;;;;;10.14;100.00;98228.15;104638;1270;61316;-69
2022/09/30 05:57:49;;;;;;;;;;;;;;;10.16;100.00;98230.85;104646;1273;61398;-69
2022/09/30 06:00:17;;;;;;;;;;;;;;;10.17;100.00;98229.87;104765;1272;75431;-69
2022/09/30 06:02:43;;;;;;;;;;;;;;;10.19;100.00;98231.14;104682;1273;68942;-69
2022/09/30 06:05:11;;;;;;;;;;;;;;;10.20;100.00;98233.73;104878;1272;73321;-70
2022/09/30 06:07:38;;;;;;;;;;;;;;;10.22;100.00;98238.71;104817;1272;61380;-69
2022/09/30 06:10:06;;;;;;;;;;;;;;;10.25;100.00;98240.29;104568;1273;61365;-69
2022/09/30 06:12:35;;;;;;;;;;;;;;;10.28;100.00;98242.20;104789;1272;75446;-69
2022/09/30 06:15:02;;;;;;;;;;;;;;;10.30;100.00;98245.41;104699;1273;69292;-69
2022/09/30 06:17:29;;;;;;;;;;;;;;;10.30;100.00;98243.62;104819;1272;73394;-69
2022/09/30 06:19:56;;;;;;;;;;;;;;;10.30;100.00;98249.63;104541;1273;61401;-69
2022/09/30 06:22:22;;;;;;;;;;;;;;;10.32;100.00;98247.71;104650;1273;61280;-70
2022/09/30 06:24:49;;;;;;;;;;;;;;;10.34;100.00;98253.26;104612;1273;75376;-70
2022/09/30 06:27:15;;;;;;;;;;;;;;;10.36;100.00;98244.45;104594;1272;61291;-70
2022/09/30 06:29:42;;;;;;;;;;;;;;;10.37;100.00;98243.60;104580;1272;61384;-69
2022/09/30 06:32:08;;;;;;;;;;;;;;;10.38;100.00;98240.90;104600;1272;61265;-69
2022/09/30 06:34:35;;;;;;;;;;;;;;;10.41;100.00;98238.40;104468;1272;181102;-69
2022/09/30 06:37:02;;;;;;;;;;;;;;;10.43;100.00;98237.64;104667;1273;75383;-69
2022/09/30 06:39:28;;;;;;;;;;;;;;;10.47;100.00;98243.34;104622;1272;61299;-69
2022/09/30 06:41:55;;;;;;;;;;;;;;;10.48;100.00;98244.34;104593;1273;72111;-69
2022/09/30 06:44:21;;;;;;;;;;;;;;;10.51;100.00;98246.62;104578;1273;61370;-69
2022/09/30 06:46:48;;;;;;;;;;;;;;;10.51;100.00;98246.59;104623;1273;61386;-70
2022/09/30 06:49:15;;;;;;;;;;;;;;;10.52;100.00;98247.55;104609;1272;61371;-69
2022/09/30 06:51:41;;;;;;;;;;;;;;;10.52;100.00;98252.34;104646;1273;69190;-69
2022/09/30 06:54:08;;;;;;;;;;;;;;;10.53;100.00;98250.15;104560;1273;74270;-69
2022/09/30 06:56:35;;;;;;;;;;;;;;;10.55;100.00;98256.90;104593;1273;61392;-69
2022/09/30 06:59:03;;;;;;;;;;;;;;;10.57;100.00;98256.84;104700;1273;61362;-69
2022/09/30 07:01:30;;;;;;;;;;;;;;;10.58;100.00;98255.67;104678;1273;75234;-69
2022/09/30 07:03:59;;;;;;;;;;;;;;;10.57;100.00;98258.97;104662;1272;69531;-69
2022/09/30 07:06:26;;;;;;;;;;;;;;;10.61;100.00;98258.07;104737;1272;72932;-69
2022/09/30 07:08:55;;;;;;;;;;;;;;;10.66;100.00;98261.02;104560;1273;61272;-69
2022/09/30 07:11:22;;;;;;;;;;;;;;;10.72;100.00;98257.90;104792;1273;61328;-69
2022/09/30 07:13:49;;;;;;;;;;;;;;;10.77;100.00;98257.54;104905;1272;74112;-69
2022/09/30 07:16:17;;;;;;;;;;;;;;;10.80;100.00;98257.63;104545;1273;69944;-69
2022/09/30 07:18:44;;;;;;;;;;;;;;;10.81;100.00;98260.25;104620;1272;73193;-68
2022/09/30 07:21:14;;;;;;;;;;;;;;;10.81;100.00;98268.63;104716;1272;61390;-68
2022/09/30 07:23:46;;;;;;;;;;;;;;;10.81;100.00;98266.96;104650;1273;61389;-69
2022/09/30 07:26:16;;;;;;;;;;;;;;;10.88;100.00;98270.48;104585;1273;74736;-70
2022/09/30 07:28:44;;;;;;;;;;;;;;;10.94;100.00;98270.02;104652;1272;69705;-70
2022/09/30 07:31:12;;;;;;;;;;;;;;;10.96;100.00;98268.94;104709;1272;73929;-71
2022/09/30 07:33:38;;;;;;;;;;;;;;;10.95;100.00;98269.59;104700;1272;61466;-70
2022/09/30 07:36:07;;;;;;;;;;;;;;;10.98;100.00;98273.24;104758;1272;61182;-70
2022/09/30 07:38:35;;;;;;;;;;;;;;;11.03;100.00;98272.70;104853;1272;75317;-68
2022/09/30 07:41:13;;;;;;;;;;;;;;;11.00;100.00;98271.11;104668;1273;70410;-69
2022/09/30 07:43:42;;;;;;;;;;;;;;;10.98;100.00;98271.29;104555;1272;74557;-68
2022/09/30 07:46:11;;;;;;;;;;;;;;;10.97;100.00;98273.17;104720;1272;61405;-68
2022/09/30 07:48:43;;;;;;;;;;;;;;;10.96;100.00;98273.79;104603;1273;61648;-68
2022/09/30 07:51:19;;;;;;;;;;;;;;;10.95;100.00;98275.29;104603;1272;75059;-68
2022/09/30 07:53:48;;;;;;;;;;;;;;;10.94;100.00;98277.45;104601;1272;70431;-68
2022/09/30 07:56:15;;;;;;;;;;;;;;;10.95;100.00;98285.43;104663;1273;71282;-68
2022/09/30 07:58:42;;;;;;;;;;;;;;;10.95;100.00;98291.48;104602;1273;61286;-68
2022/09/30 08:01:09;;;;;;;;;;;;;;;10.95;100.00;98292.83;104598;1273;61766;-68
2022/09/30 08:03:39;;;;;;;;;;;;;;;10.96;100.00;98295.84;104613;1273;75680;-69
2022/09/30 08:06:10;;;;;;;;;;;;;;;10.97;100.00;98299.63;104780;1273;69037;-68
2022/09/30 08:08:37;;;;;;;;;;;;;;;10.97;100.00;98296.46;104608;1272;74887;-68
2022/09/30 08:11:04;;;;;;;;;;;;;;;10.96;100.00;98298.42;104603;1273;61207;-68
2022/09/30 08:13:31;;;;;;;;;;;;;;;10.94;100.00;98297.91;104770;1273;61351;-69
2022/09/30 08:15:58;;;;;;;;;;;;;;;10.93;100.00;98302.30;104590;1273;75461;-70
2022/09/30 08:18:24;;;;;;;;;;;;;;;10.92;100.00;98303.37;104702;1273;69563;-69
2022/09/30 08:20:51;;;;;;;;;;;;;;;10.92;100.00;98305.73;104715;1273;61362;-69
2022/09/30 08:23:17;;;;;;;;;;;;;;;10.95;100.00;98307.48;104661;1273;61309;-70
2022/09/30 08:25:45;;;;;;;;;;;;;;;11.00;100.00;98308.65;104864;1272;61298;-68
2022/09/30 08:28:12;;;;;;;;;;;;;;;11.02;100.00;98309.05;104810;1272;75446;-69
2022/09/30 08:30:39;;;;;;;;;;;;;;;11.04;100.00;98310.81;104696;1273;70132;-69
2022/09/30 08:33:06;;;;;;;;;;;;;;;11.05;100.00;98314.83;104658;1272;73463;-69
2022/09/30 08:35:34;;;;;;;;;;;;;;;11.10;100.00;98313.02;104683;1273;61184;-69
2022/09/30 08:38:00;;;;;;;;;;;;;;;11.20;100.00;98309.41;104696;1273;62272;-69
2022/09/30 08:40:29;;;;;;;;;;;;;;;11.30;100.00;98313.01;104677;1273;61441;-69
2022/09/30 08:43:14;;;;;;;;;;;;;;;11.41;100.00;98314.44;104814;1273;69525;-68
2022/09/30 08:45:41;;;;;;;;;;;;;;;11.52;100.00;98313.77;104621;1272;74377;-68
2022/09/30 08:48:27;;;;;;;;;;;;;;;11.57;100.00;98312.95;104616;1273;61299;-68
2022/09/30 08:50:54;;;;;;;;;;;;;;;11.64;100.00;98312.73;104602;1272;61806;-68
2022/09/30 08:53:24;;;;;;;;;;;;;;;11.71;100.00;98315.04;104789;1274;61420;-70
2022/09/30 08:55:51;;;;;;;;;;;;;;;11.73;100.00;98311.44;104598;1273;70353;-69
2022/09/30 08:58:29;;;;;;;;;;;;;;;11.76;100.00;98314.39;104842;1273;73520;-69
2022/09/30 09:00:58;;;;;;;;;;;;;;;11.79;100.00;98317.02;104676;1273;61323;-68
2022/09/30 09:03:27;;;;;;;;;;;;;;;11.79;100.00;98316.98;104843;1273;61368;-68
2022/09/30 09:05:56;;;;;;;;;;;;;;;11.81;100.00;98316.63;104766;1273;75187;-69
2022/09/30 09:08:37;;;;;;;;;;;;;;;11.92;100.00;98320.64;104642;1273;69658;-68
2022/09/30 09:11:23;;;;;;;;;;;;;;;11.97;100.00;98323.73;104632;1272;74272;-69
2022/09/30 09:13:55;;;;;;;;;;;;;;;12.03;100.00;98324.07;104868;1273;61417;-70
2022/09/30 09:16:35;;;;;;;;;;;;;;;12.09;100.00;98325.20;104742;1273;61589;-66
2022/09/30 09:19:09;;;;;;;;;;;;;;;12.17;100.00;98328.66;104746;1273;75385;-68
2022/09/30 09:21:55;;;;;;;;;;;;;;;12.21;100.00;98328.69;104823;1273;69239;-70
2022/09/30 09:24:24;;;;;;;;;;;;;;;12.22;100.00;98328.91;104906;1272;73471;-70
2022/09/30 09:26:52;;;;;;;;;;;;;;;12.19;100.00;98330.62;104696;1273;61493;-69
2022/09/30 09:29:26;;;;;;;;;;;;;;;12.17;100.00;98333.29;104598;1273;62668;-69
2022/09/30 09:31:53;;;;;;;;;;;;;;;12.13;100.00;98334.52;104646;1273;76367;-68
2022/09/30 09:34:22;;;;;;;;;;;;;;;12.12;100.00;98334.98;104572;1273;69537;-69
2022/09/30 09:36:52;;;;;;;;;;;;;;;12.10;100.00;98335.67;104578;1270;73385;-69
2022/09/30 09:39:37;;;;;;;;;;;;;;;12.11;100.00;98333.11;104743;1272;61302;-71
2022/09/30 09:42:09;;;;;;;;;;;;;;;12.08;100.00;98341.48;104675;1273;61341;-70
2022/09/30 09:44:41;;;;;;;;;;;;;;;12.04;100.00;98343.27;104678;1273;75378;-69
2022/09/30 09:47:14;;;;;;;;;;;;;;;12.02;100.00;98346.48;104853;1273;69390;-70
2022/09/30 09:49:45;;;;;;;;;;;;;;;11.96;100.00;98347.29;104498;1272;72443;-69
2022/09/30 09:52:11;;;;;;;;;;;;;;;11.99;100.00;98347.64;104691;1273;61773;-70
2022/09/30 09:54:40;;;;;;;;;;;;;;;12.00;100.00;98344.25;104826;1273;61285;-70
2022/09/30 09:57:10;;;;;;;;;;;;;;;12.03;100.00;98346.17;104920;1273;76557;-70
2022/09/30 09:59:52;;;;;;;;;;;;;;;12.05;100.00;98346.91;104706;1273;69230;-69
2022/09/30 10:02:26;;;;;;;;;;;;;;;12.09;100.00;98343.42;104837;1273;73638;-69
2022/09/30 10:05:03;;;;;;;;;;;;;;;12.13;100.00;98355.02;104709;1273;61324;-69
2022/09/30 10:07:32;;;;;;;;;;;;;;;12.14;100.00;98356.88;104889;1273;61325;-69
2022/09/30 10:10:06;;;;;;;;;;;;;;;12.13;100.00;98355.38;104905;1273;75017;-69
2022/09/30 10:12:33;;;;;;;;;;;;;;;12.15;100.00;98359.83;104999;1273;69455;-69
2022/09/30 10:15:02;;;;;;;;;;;;;;;12.16;100.00;98357.95;104889;1273;72902;-68
2022/09/30 10:17:28;;;;;;;;;;;;;;;12.17;100.00;98360.18;104713;1273;61304;-69
2022/09/30 10:20:12;;;;;;;;;;;;;;;12.14;100.00;98362.00;104722;1273;61204;-69
2022/09/30 10:22:39;;;;;;;;;;;;;;;12.12;100.00;98361.48;104812;1273;75435;-71
2022/09/30 10:25:16;;;;;;;;;;;;;;;12.13;100.00;98362.48;104821;1273;69487;-70
2022/09/30 10:27:52;;;;;;;;;;;;;;;12.13;100.00;98364.11;104662;1272;74555;-69
2022/09/30 10:30:29;;;;;;;;;;;;;;;12.13;100.00;98367.83;104749;1274;61309;-71
2022/09/30 10:32:56;;;;;;;;;;;;;;;12.15;100.00;98366.21;104972;1273;61192;-70
2022/09/30 10:35:23;;;;;;;;;;;;;;;12.19;100.00;98368.55;104906;1273;75441;-69
2022/09/30 10:37:53;;;;;;;;;;;;;;;12.23;100.00;98371.80;104709;1273;69194;-69
2022/09/30 10:40:26;;;;;;;;;;;;;;;12.24;100.00;98373.79;104715;1273;73529;-70
2022/09/30 10:42:53;;;;;;;;;;;;;;;12.24;100.00;98380.03;104757;1273;61303;-69
2022/09/30 10:45:24;;;;;;;;;;;;;;;12.25;100.00;98380.36;104809;1272;61743;-71
2022/09/30 10:47:52;;;;;;;;;;;;;;;12.27;100.00;98380.16;104689;1273;75776;-69
2022/09/30 10:50:20;;;;;;;;;;;;;;;12.33;100.00;98381.99;104812;1273;69072;-69
2022/09/30 10:52:50;;;;;;;;;;;;;;;12.35;100.00;98383.44;104713;1273;73516;-70
2022/09/30 10:55:19;;;;;;;;;;;;;;;12.38;100.00;98384.62;104677;1272;61291;-69
2022/09/30 10:57:47;;;;;;;;;;;;;;;12.40;100.00;98388.02;104621;1272;61311;-69
2022/09/30 11:00:21;;;;;;;;;;;;;;;12.42;100.00;98391.07;104660;1273;74893;-75
2022/09/30 11:02:47;;;;;;;;;;;;;;;12.42;100.00;98392.13;104964;1273;70493;-73
2022/09/30 11:05:21;;;;;;;;;;;;;;;12.42;100.00;98392.45;104940;1272;72321;-72
2022/09/30 11:07:59;;;;;;;;;;;;;;;12.42;100.00;98395.89;105004;1273;61241;-71
2022/09/30 11:10:26;;;;;;;;;;;;;;;12.38;100.00;98396.02;104991;1272;61385;-73
2022/09/30 11:13:01;;;;;;;;;;;;;;;12.37;100.00;98401.40;104946;1273;61408;-74
2022/09/30 11:15:31;;;;;;;;;;;;;;;12.38;100.00;98399.58;104979;1273;70840;-73
2022/09/30 11:17:59;;;;;;;;;;;;;;;12.44;100.00;98401.77;104934;1272;74365;-73
2022/09/30 11:20:27;;;;;;;;;;;;;;;12.52;100.00;98403.55;104938;1273;61433;-73
2022/09/30 11:23:01;;;;;;;;;;;;;;;12.61;100.00;98405.07;104627;1272;61377;-73
2022/09/30 11:25:37;;;;;;;;;;;;;;;12.66;100.00;98409.80;104956;1273;75936;-73
2022/09/30 11:28:14;;;;;;;;;;;;;;;12.70;100.00;98412.20;105017;1273;69061;-73
2022/09/30 11:30:59;;;;;;;;;;;;;;;12.74;100.00;98414.48;104949;1273;73695;-74
2022/09/30 11:33:44;;;;;;;;;;;;;;;12.83;100.00;98411.27;104883;1273;61268;-72
2022/09/30 11:36:14;;;;;;;;;;;;;;;12.84;100.00;98418.98;104982;1273;61859;-72
2022/09/30 11:39:07;;;;;;;;;;;;;;;12.86;100.00;98417.79;104982;1272;74647;-74
2022/09/30 11:41:36;;;;;;;;;;;;;;;12.92;100.00;98420.23;104934;1273;68293;-72
2022/09/30 11:44:12;;;;;;;;;;;;;;;12.97;100.00;98422.16;104965;1273;73232;-73
2022/09/30 11:46:57;;;;;;;;;;;;;;;13.04;100.00;98424.77;104956;1273;61405;-72
2022/09/30 11:49:24;;;;;;;;;;;;;;;13.09;100.00;98426.52;104989;1273;61439;-71
2022/09/30 11:51:55;;;;;;;;;;;;;;;13.08;100.00;98423.33;104744;1273;61373;-73
2022/09/30 11:54:25;;;;;;;;;;;;;;;13.10;100.00;98424.41;104970;1272;69582;-73
2022/09/30 11:57:00;;;;;;;;;;;;;;;13.13;100.00;98426.14;104961;1273;74389;-71
2022/09/30 11:59:34;;;;;;;;;;;;;;;13.10;100.00;98427.48;104915;1273;61459;-73
2022/09/30 12:02:03;;;;;;;;;;;;;;;13.03;100.00;98426.65;104894;1273;61559;-73
2022/09/30 12:04:33;;;;;;;;;;;;;;;13.02;100.00;98427.44;104911;1273;74310;-73
2022/09/30 12:07:05;;;;;;;;;;;;;;;12.99;100.00;98427.71;104932;1274;69339;-73
2022/09/30 12:09:45;;;;;;;;;;;;;;;12.89;100.00;98431.96;104921;1273;74448;-74
2022/09/30 12:12:15;;;;;;;;;;;;;;;12.83;100.00;98437.31;104969;1273;61299;-75
2022/09/30 12:14:41;;;;;;;;;;;;;;;12.81;100.00;98439.44;104979;1273;61199;-72
2022/09/30 12:17:19;;;;;;;;;;;;;;;12.79;100.00;98441.20;104903;1273;61382;-73
2022/09/30 12:19:50;;;;;;;;;;;;;;;12.72;100.00;98440.73;104998;1273;69438;-76
2022/09/30 12:22:19;;;;;;;;;;;;;;;12.66;100.00;98442.98;104907;1273;72466;-72
2022/09/30 12:24:46;;;;;;;;;;;;;;;12.66;100.00;98442.65;104696;1273;61295;-71
2022/09/30 12:27:20;;;;;;;;;;;;;;;12.61;100.00;98444.33;104867;1273;61336;-72
2022/09/30 12:30:16;;;;;;;;;;;;;;;12.56;100.00;98444.55;104936;1273;76136;-73
2022/09/30 12:32:49;;;;;;;;;;;;;;;12.51;100.00;98448.67;104723;1279;68714;-72
2022/09/30 12:35:26;;;;;;;;;;;;;;;12.50;100.00;98453.22;104499;1280;74542;-72
2022/09/30 12:38:11;;;;;;;;;;;;;;;12.54;100.00;98455.42;104553;1279;61424;-73
2022/09/30 12:40:38;;;;;;;;;;;;;;;12.56;100.00;98455.09;104545;1279;62001;-72
2022/09/30 12:43:21;;;;;;;;;;;;;;;12.57;100.00;98457.13;104522;1280;61305;-73
2022/09/30 12:45:54;;;;;;;;;;;;;;;12.58;100.00;98467.03;104509;1279;70483;-73
2022/09/30 12:48:23;;;;;;;;;;;;;;;12.59;100.00;98470.11;104497;1280;73179;-73